Time;durP1;ratioP1;P1;durP2;ratioP2;P2;SDS_P1;SDS_P2;PMS_P1;PMS_P2;Temp;Humidity;BMP_temperature;BMP_pressure;BME280_temperature;BME280_humidity;BME280_pressure;Samples;Min_cycle;Max_cycle;Signal;HPM_P1;HPM_P2
2023/07/12 00:00:53;;;;;;;6.30;2.90;;;;;;;27.98;46.87;99029.91;5073480;28;20207;-85
2023/07/12 00:03:18;;;;;;;5.10;2.85;;;;;;;27.93;47.05;99029.66;5067764;28;20536;-86
2023/07/12 00:05:46;;;;;;;7.72;3.80;;;;;;;27.88;47.12;99021.31;5073426;28;20259;-86
2023/07/12 00:08:24;;;;;;;5.18;3.35;;;;;;;27.73;47.60;99017.84;5073479;28;20239;-85
2023/07/12 00:10:50;;;;;;;10.40;3.45;;;;;;;27.63;47.67;99015.47;5073792;28;20173;-86
2023/07/12 00:13:17;;;;;;;5.82;3.15;;;;;;;27.54;47.92;99013.09;5072459;28;20181;-85
2023/07/12 00:15:43;;;;;;;6.28;3.03;;;;;;;27.44;48.68;99014.25;5072430;28;20185;-86
2023/07/12 00:18:24;;;;;;;5.30;2.65;;;;;;;27.45;48.53;99004.31;5073417;28;20230;-86
2023/07/12 00:20:51;;;;;;;6.60;3.00;;;;;;;27.35;48.81;99009.97;5073507;28;20303;-86
2023/07/12 00:23:19;;;;;;;6.15;3.40;;;;;;;27.29;48.93;99013.44;5073589;28;20205;-85
2023/07/12 00:25:46;;;;;;;9.88;4.10;;;;;;;27.18;49.60;99003.16;5072372;28;20250;-85
2023/07/12 00:28:32;;;;;;;7.53;2.90;;;;;;;27.20;49.72;99009.16;5072299;28;20196;-86
2023/07/12 00:30:57;;;;;;;6.97;2.80;;;;;;;27.24;49.84;99012.31;5073580;28;20262;-86
2023/07/12 00:33:23;;;;;;;5.07;2.90;;;;;;;27.28;49.40;99013.63;5073247;28;20189;-85
2023/07/12 00:35:50;;;;;;;4.55;2.90;;;;;;;27.24;50.59;99006.94;5072271;28;20176;-85
2023/07/12 00:38:20;;;;;;;7.35;3.38;;;;;;;27.44;47.69;99008.84;5073173;28;20180;-85
2023/07/12 00:41:01;;;;;;;5.85;3.20;;;;;;;27.48;46.52;99003.09;5073154;28;20197;-85
2023/07/12 00:43:34;;;;;;;6.95;3.03;;;;;;;27.27;47.35;98998.50;5073217;28;20173;-85
2023/07/12 00:46:02;;;;;;;6.10;3.47;;;;;;;27.60;46.34;98998.84;5073463;28;20165;-85
2023/07/12 00:48:27;;;;;;;6.43;3.55;;;;;;;27.44;46.16;98997.25;5073077;28;20176;-85
2023/07/12 00:50:53;;;;;;;6.63;3.35;;;;;;;27.30;46.38;98998.97;5072033;28;20246;-85
2023/07/12 00:53:23;;;;;;;4.93;2.88;;;;;;;27.35;46.21;98995.69;5073069;28;20181;-86
2023/07/12 00:56:00;;;;;;;6.40;3.35;;;;;;;27.33;45.94;98993.16;5073396;28;20165;-85
2023/07/12 00:58:30;;;;;;;5.28;2.85;;;;;;;27.42;45.73;99000.13;5072353;28;20246;-85
2023/07/12 01:00:58;;;;;;;5.90;3.38;;;;;;;27.52;45.78;98993.59;5073069;28;20193;-85
2023/07/12 01:03:27;;;;;;;5.90;3.60;;;;;;;27.53;45.51;98987.19;5071997;28;20204;-85
2023/07/12 01:05:52;;;;;;;5.35;3.05;;;;;;;27.62;44.89;98986.06;5072906;28;20193;-85
2023/07/12 01:08:20;;;;;;;6.35;3.25;;;;;;;27.97;44.21;98982.41;5072905;28;20184;-85
2023/07/12 01:10:45;;;;;;;10.38;3.55;;;;;;;27.91;44.58;98975.09;5072918;28;20270;-85
2023/07/12 01:13:11;;;;;;;6.88;3.05;;;;;;;27.81;44.34;98978.13;5072906;28;20675;-85
2023/07/12 01:15:36;;;;;;;4.85;2.67;;;;;;;27.88;44.51;98976.31;5076604;28;20543;-85
2023/07/12 01:18:03;;;;;;;5.88;3.00;;;;;;;27.90;44.48;98971.59;5075554;28;20543;-85
2023/07/12 01:20:38;;;;;;;5.38;2.90;;;;;;;27.76;44.27;98985.13;5076281;28;20221;-85
2023/07/12 01:23:04;;;;;;;4.80;2.85;;;;;;;27.89;44.39;98972.63;5075618;28;20169;-86
2023/07/12 01:26:31;;;;;;;5.15;3.47;;;;;;;28.05;44.98;98979.63;5076551;28;20248;-86
2023/07/12 01:28:59;;;;;;;6.20;3.28;;;;;;;28.10;46.70;98979.84;5031898;28;20539;-86
2023/07/12 01:31:26;;;;;;;6.38;3.28;;;;;;;28.07;47.07;98977.53;5075478;28;20237;-86
2023/07/12 01:33:53;;;;;;;7.50;3.80;;;;;;;28.02;47.65;98971.91;5076618;28;20507;-85
2023/07/12 01:36:20;;;;;;;6.85;4.00;;;;;;;27.96;48.14;98967.28;5076321;28;20178;-85
2023/07/12 01:38:46;;;;;;;9.02;3.88;;;;;;;27.91;47.88;98972.41;5075344;28;20188;-86
2023/07/12 01:41:12;;;;;;;9.98;4.55;;;;;;;27.82;48.19;98969.03;5075998;28;20200;-85
2023/07/12 01:43:37;;;;;;;6.78;3.80;;;;;;;27.83;48.61;98969.88;5075532;28;20177;-85
2023/07/12 01:46:03;;;;;;;9.18;4.25;;;;;;;27.71;49.33;98974.09;5076026;28;20177;-86
2023/07/12 01:48:29;;;;;;;9.60;3.95;;;;;;;27.63;49.48;98972.38;5076075;28;20173;-85
2023/07/12 01:50:54;;;;;;;8.93;3.90;;;;;;;27.58;49.33;98968.59;5075148;28;20192;-86
2023/07/12 01:53:20;;;;;;;8.40;3.50;;;;;;;27.44;49.89;98976.53;5075987;28;20173;-85
2023/07/12 01:55:45;;;;;;;9.98;4.25;;;;;;;27.35;49.93;98966.06;5074985;28;20191;-86
2023/07/12 01:58:12;;;;;;;6.40;3.53;;;;;;;27.23;50.17;98973.78;5075717;28;20173;-85
2023/07/12 02:00:37;;;;;;;10.38;3.78;;;;;;;27.10;50.33;98976.34;5074879;28;20205;-85
2023/07/12 02:03:03;;;;;;;10.70;3.45;;;;;;;27.03;50.66;98978.13;5075708;28;20177;-86
2023/07/12 02:05:29;;;;;;;6.95;3.58;;;;;;;26.96;50.64;98979.91;5075780;28;20236;-85
2023/07/12 02:07:56;;;;;;;6.43;3.42;;;;;;;26.94;50.80;98984.63;5074795;28;20185;-85
2023/07/12 02:10:23;;;;;;;6.50;3.30;;;;;;;26.79;51.69;98986.50;5074788;28;20250;-85
2023/07/12 02:12:49;;;;;;;8.50;3.75;;;;;;;26.70;51.74;98988.44;5075650;28;20169;-85
2023/07/12 02:15:15;;;;;;;8.88;3.58;;;;;;;26.65;51.99;98985.47;5074766;28;20600;-86
2023/07/12 02:17:40;;;;;;;6.97;3.47;;;;;;;26.52;52.06;98998.72;5075611;28;20669;-85
2023/07/12 02:20:08;;;;;;;6.13;2.83;;;;;;;26.48;52.07;98993.91;5075330;28;20262;-85
2023/07/12 02:22:35;;;;;;;6.55;3.83;;;;;;;26.35;52.45;98993.72;5074608;28;20177;-85
2023/07/12 02:25:00;;;;;;;6.25;3.28;;;;;;;26.27;53.37;98988.44;5073701;28;20284;-85
2023/07/12 02:27:27;;;;;;;7.88;3.78;;;;;;;26.14;53.59;98997.13;5075849;28;20212;-85
2023/07/12 02:29:52;;;;;;;6.03;3.83;;;;;;;26.04;54.26;98991.16;5075384;28;20184;-85
2023/07/12 02:32:18;;;;;;;5.65;3.28;;;;;;;26.04;54.29;98999.22;5074634;28;20173;-85
2023/07/12 02:34:43;;;;;;;5.70;3.40;;;;;;;26.02;54.49;98991.31;5075332;28;20168;-85
2023/07/12 02:37:09;;;;;;;8.10;3.57;;;;;;;25.90;55.22;98989.25;5075473;28;20188;-85
2023/07/12 02:39:35;;;;;;;5.17;3.10;;;;;;;25.90;54.61;98994.63;5075202;28;20173;-85
2023/07/12 02:42:00;;;;;;;8.03;3.53;;;;;;;25.93;54.58;99000.47;5075085;28;20231;-85
2023/07/12 02:44:25;;;;;;;6.43;3.70;;;;;;;25.81;54.46;99007.31;5075111;28;20174;-85
2023/07/12 02:46:51;;;;;;;5.67;3.13;;;;;;;25.77;53.86;99011.34;5074749;28;20538;-85
2023/07/12 02:49:16;;;;;;;7.60;4.10;;;;;;;25.64;54.48;99019.16;5074048;28;20188;-85
2023/07/12 02:51:43;;;;;;;6.87;4.00;;;;;;;25.57;54.30;99019.06;5074943;28;20258;-85
2023/07/12 02:54:08;;;;;;;8.80;4.00;;;;;;;25.65;54.38;99026.22;5073952;28;20173;-85
2023/07/12 02:56:33;;;;;;;8.73;3.53;;;;;;;25.73;54.64;99026.16;5074695;28;20256;-85
2023/07/12 02:58:59;;;;;;;7.83;3.93;;;;;;;25.63;55.13;99028.22;5075135;28;20532;-85
2023/07/12 03:01:25;;;;;;;5.80;3.37;;;;;;;25.50;55.78;99015.41;5075295;28;20189;-85
2023/07/12 03:03:52;;;;;;;6.37;3.53;;;;;;;25.49;55.65;99018.28;5074678;28;20549;-85
2023/07/12 03:06:18;;;;;;;4.67;3.00;;;;;;;25.56;55.61;99021.91;5073702;28;20173;-85
2023/07/12 03:08:44;;;;;;;5.43;3.37;;;;;;;25.60;55.45;99024.03;5067387;28;20189;-85
2023/07/12 03:11:09;;;;;;;6.00;3.83;;;;;;;25.58;56.03;99025.25;5054519;28;20657;-85
2023/07/12 03:13:35;;;;;;;5.47;3.73;;;;;;;25.57;55.85;99026.28;5054532;28;20231;-85
2023/07/12 03:16:05;;;;;;;6.13;3.60;;;;;;;25.58;55.71;99027.94;5066551;28;20626;-85
2023/07/12 03:18:31;;;;;;;6.70;3.30;;;;;;;25.61;55.78;99033.78;5074687;28;20181;-85
2023/07/12 03:21:05;;;;;;;6.03;3.53;;;;;;;25.62;55.46;99045.38;5074110;28;20201;-85
2023/07/12 03:23:32;;;;;;;5.70;3.63;;;;;;;25.65;55.49;99045.00;5074795;28;20185;-85
2023/07/12 03:25:57;;;;;;;7.60;3.70;;;;;;;25.71;54.96;99046.97;5074531;28;20193;-85
2023/07/12 03:28:23;;;;;;;7.90;3.50;;;;;;;25.76;55.01;99057.19;5074022;28;20306;-85
2023/07/12 03:31:07;;;;;;;6.47;3.67;;;;;;;25.88;54.72;99058.44;5073183;28;20184;-85
2023/07/12 03:33:33;;;;;;;7.20;3.83;;;;;;;25.87;54.54;99059.44;5074117;28;20681;-85
2023/07/12 03:35:59;;;;;;;7.30;4.07;;;;;;;25.90;54.49;99064.44;5073848;28;20248;-85
2023/07/12 03:38:25;;;;;;;9.30;3.50;;;;;;;25.81;55.18;99069.06;5072319;28;20169;-85
2023/07/12 03:40:55;;;;;;;8.23;4.00;;;;;;;25.71;55.63;99064.94;5073715;28;20283;-85
2023/07/12 03:43:21;;;;;;;9.27;4.00;;;;;;;25.65;55.99;99066.50;5074439;28;20196;-85
2023/07/12 03:45:46;;;;;;;7.33;3.67;;;;;;;25.67;55.93;99069.81;5073860;28;20169;-85
2023/07/12 03:48:12;;;;;;;6.23;3.67;;;;;;;25.63;56.70;99084.59;5072895;28;20242;-85
2023/07/12 03:50:40;;;;;;;8.93;4.20;;;;;;;25.58;57.92;99082.47;5072849;28;20631;-85
2023/07/12 03:53:06;;;;;;;7.20;4.40;;;;;;;25.55;57.95;99088.16;5072744;28;20529;-85
2023/07/12 03:55:31;;;;;;;7.73;3.93;;;;;;;25.58;57.79;99085.13;5073735;28;20161;-85
2023/07/12 03:57:57;;;;;;;6.70;3.80;;;;;;;25.61;57.23;99076.72;5073486;28;20176;-85
2023/07/12 04:00:23;;;;;;;5.40;3.33;;;;;;;25.54;57.71;99081.16;5073560;28;20223;-84
2023/07/12 04:02:49;;;;;;;4.73;3.17;;;;;;;25.64;57.94;99071.03;5073608;28;20177;-85
2023/07/12 04:05:14;;;;;;;7.67;3.90;;;;;;;25.71;57.63;99081.88;5073391;28;20185;-84
2023/07/12 04:07:40;;;;;;;5.87;3.20;;;;;;;25.75;57.62;99090.41;5073855;28;20172;-85
2023/07/12 04:10:06;;;;;;;7.23;3.63;;;;;;;25.81;57.61;99093.25;5073791;28;20633;-85
2023/07/12 04:12:31;;;;;;;5.73;3.57;;;;;;;25.83;58.59;99096.56;5072429;28;20536;-85
2023/07/12 04:14:58;;;;;;;7.47;4.30;;;;;;;25.90;58.48;99102.88;5073328;28;20653;-85
2023/07/12 04:17:24;;;;;;;9.93;3.90;;;;;;;26.07;58.68;99104.44;5072316;28;20558;-84
2023/07/12 04:19:49;;;;;;;7.33;3.57;;;;;;;26.11;58.94;99096.84;5072425;28;20169;-84
2023/07/12 04:22:15;;;;;;;8.17;3.57;;;;;;;26.19;58.99;99091.44;5072316;28;20558;-85
2023/07/12 04:24:40;;;;;;;7.47;3.97;;;;;;;26.29;58.58;99102.78;5072429;28;20677;-85
2023/07/12 04:27:05;;;;;;;9.07;3.90;;;;;;;26.37;58.53;99104.56;5073488;28;20256;-85
2023/07/12 04:29:31;;;;;;;6.90;3.37;;;;;;;26.43;59.54;99096.63;5072914;28;20165;-85
2023/07/12 04:31:57;;;;;;;6.90;3.65;;;;;;;26.55;58.91;99097.00;5072349;28;20269;-85
2023/07/12 04:34:22;;;;;;;7.73;3.60;;;;;;;26.71;58.07;99103.06;5073625;28;20173;-85
2023/07/12 04:36:48;;;;;;;6.67;3.80;;;;;;;26.85;57.57;99093.38;5073219;28;20623;-85
2023/07/12 04:39:13;;;;;;;6.78;3.33;;;;;;;27.02;57.28;99097.53;5072294;28;20514;-85
2023/07/12 04:41:39;;;;;;;7.22;4.15;;;;;;;27.17;56.95;99102.91;5072103;28;20196;-85
2023/07/12 04:44:04;;;;;;;5.75;3.35;;;;;;;27.29;57.13;99098.72;5073173;28;20242;-85
2023/07/12 04:46:30;;;;;;;5.73;3.93;;;;;;;27.38;56.43;99100.28;5073206;28;20169;-85
2023/07/12 04:48:55;;;;;;;8.43;4.28;;;;;;;27.52;54.91;99095.91;5075156;28;20256;-85
2023/07/12 04:51:21;;;;;;;6.70;3.55;;;;;;;27.66;53.68;99097.75;5077251;28;20234;-85
2023/07/12 04:53:47;;;;;;;7.67;3.97;;;;;;;27.77;52.92;99097.25;5077209;28;20617;-85
2023/07/12 04:56:16;;;;;;;7.97;4.10;;;;;;;27.88;53.46;99097.56;5077189;28;20173;-85
2023/07/12 04:58:45;;;;;;;7.50;3.97;;;;;;;27.99;53.97;99107.00;5076287;28;20177;-86
2023/07/12 05:01:10;;;;;;;6.53;3.50;;;;;;;28.14;53.62;99107.00;5076965;28;20612;-86
2023/07/12 05:03:37;;;;;;;6.10;3.90;;;;;;;28.28;53.13;99114.16;5076082;28;20653;-86
2023/07/12 05:06:02;;;;;;;9.15;4.03;;;;;;;28.35;54.92;99120.47;5056502;28;20189;-85
2023/07/12 05:08:28;;;;;;;6.35;3.67;;;;;;;28.42;55.31;99118.63;5057151;28;20257;-86
2023/07/12 05:11:00;;;;;;;8.20;4.45;;;;;;;28.57;55.20;99125.63;5056871;28;20619;-86
2023/07/12 05:13:26;;;;;;;7.55;3.75;;;;;;;28.76;54.06;99123.28;5056831;28;20612;-85
2023/07/12 05:15:52;;;;;;;9.07;4.95;;;;;;;29.01;52.64;99125.31;5064665;28;20188;-85
2023/07/12 05:18:18;;;;;;;8.20;4.35;;;;;;;29.23;50.56;99120.72;5076984;28;20176;-86
2023/07/12 05:20:44;;;;;;;6.32;3.83;;;;;;;29.34;50.91;99117.44;5075491;28;20216;-86
2023/07/12 05:23:09;;;;;;;8.55;3.55;;;;;;;29.55;50.22;99120.03;5076609;28;20252;-86
2023/07/12 05:25:35;;;;;;;6.30;3.65;;;;;;;29.82;49.62;99123.69;5075351;28;20180;-86
2023/07/12 05:28:03;;;;;;;10.25;3.95;;;;;;;30.05;49.24;99120.63;5076462;28;20188;-86
2023/07/12 05:30:31;;;;;;;7.97;3.67;;;;;;;30.21;48.34;99121.06;5076705;28;20275;-85
2023/07/12 05:32:57;;;;;;;9.93;4.40;;;;;;;30.50;48.32;99125.28;5075476;28;20181;-86
2023/07/12 05:35:22;;;;;;;6.70;4.00;;;;;;;30.73;49.57;99124.84;5059755;28;20615;-85
2023/07/12 05:37:51;;;;;;;9.35;3.85;;;;;;;30.90;47.03;99126.91;5056449;28;20166;-85
2023/07/12 05:40:17;;;;;;;7.88;4.30;;;;;;;31.01;45.62;99123.59;5056370;28;20613;-86
2023/07/12 05:42:42;;;;;;;7.45;3.95;;;;;;;31.09;44.15;99117.09;5076164;28;20185;-86
2023/07/12 05:45:14;;;;;;;8.80;3.67;;;;;;;31.21;45.14;99111.88;5076523;28;20651;-86
2023/07/12 05:47:42;;;;;;;7.65;4.45;;;;;;;31.25;44.99;99115.81;5075218;28;20180;-86
2023/07/12 05:50:11;;;;;;;15.57;5.32;;;;;;;31.36;45.66;99124.13;5076418;28;20581;-86
2023/07/12 05:52:37;;;;;;;10.23;4.28;;;;;;;31.46;46.49;99127.22;5076043;28;20260;-86
2023/07/12 05:55:05;;;;;;;7.85;4.63;;;;;;;31.44;43.67;99123.03;5076285;28;20634;-86
2023/07/12 05:57:31;;;;;;;10.57;4.93;;;;;;;31.46;45.00;99123.69;5074796;28;20207;-86
2023/07/12 05:59:56;;;;;;;8.30;4.22;;;;;;;31.51;44.59;99118.44;5075570;28;20173;-86
2023/07/12 06:02:21;;;;;;;8.85;4.80;;;;;;;31.57;44.42;99120.31;5075754;28;20185;-86
2023/07/12 06:04:47;;;;;;;10.27;4.47;;;;;;;31.56;43.80;99127.59;5075701;28;20244;-86
2023/07/12 06:07:12;;;;;;;8.63;4.50;;;;;;;31.66;44.31;99116.28;5074850;28;20177;-86
2023/07/12 06:09:38;;;;;;;9.32;5.28;;;;;;;31.79;43.60;99118.13;5074825;28;20260;-87
2023/07/12 06:12:05;;;;;;;12.50;4.60;;;;;;;31.87;43.41;99115.97;5074722;28;20173;-86
2023/07/12 06:14:30;;;;;;;6.68;4.25;;;;;;;31.94;43.12;99114.06;5074605;28;20185;-87
2023/07/12 06:16:55;;;;;;;9.55;5.07;;;;;;;32.03;43.78;99115.50;5075904;28;20175;-87
2023/07/12 06:19:21;;;;;;;9.77;4.25;;;;;;;32.08;44.25;99121.09;5075850;28;20201;-87
2023/07/12 06:21:46;;;;;;;7.53;4.53;;;;;;;32.11;43.74;99127.97;5075161;28;20209;-86
2023/07/12 06:24:12;;;;;;;6.57;3.88;;;;;;;32.17;43.51;99119.78;5054550;28;20223;-87
2023/07/12 06:26:37;;;;;;;9.15;4.30;;;;;;;32.23;42.93;99113.47;5057975;28;20184;-87
2023/07/12 06:29:03;;;;;;;8.45;4.07;;;;;;;32.33;42.63;99120.31;5074705;28;20633;-87
2023/07/12 06:31:29;;;;;;;7.13;3.90;;;;;;;32.46;40.22;99123.75;5075647;28;20169;-87
2023/07/12 06:33:59;;;;;;;5.80;3.42;;;;;;;32.63;39.88;99124.03;5075308;28;20173;-87
2023/07/12 06:36:25;;;;;;;11.48;4.32;;;;;;;32.78;41.20;99125.34;5074652;28;20181;-87
2023/07/12 06:38:50;;;;;;;8.70;4.25;;;;;;;32.94;40.53;99136.72;5074586;28;20533;-87
2023/07/12 06:41:15;;;;;;;9.80;3.72;;;;;;;33.07;40.52;99128.47;5074405;28;20219;-87
2023/07/12 06:43:41;;;;;;;9.93;4.13;;;;;;;33.25;41.75;99129.31;5075090;28;20679;-87
2023/07/12 06:46:06;;;;;;;7.60;4.05;;;;;;;33.48;40.16;99128.63;5074416;28;20177;-87
2023/07/12 06:48:32;;;;;;;8.20;4.10;;;;;;;33.66;40.01;99122.34;5073966;28;20213;-87
2023/07/12 06:50:58;;;;;;;5.72;3.40;;;;;;;33.90;39.74;99129.56;5074275;28;20550;-88
2023/07/12 06:53:26;;;;;;;7.03;3.72;;;;;;;34.03;39.43;99121.22;5075192;28;20212;-87
2023/07/12 06:55:52;;;;;;;6.82;3.92;;;;;;;34.26;39.93;99113.13;5075355;28;20600;-87
2023/07/12 06:58:18;;;;;;;8.05;4.18;;;;;;;34.49;39.64;99120.50;5074826;28;20656;-88
2023/07/12 07:00:44;;;;;;;7.43;4.00;;;;;;;34.59;39.73;99127.06;5074544;28;20193;-87
2023/07/12 07:03:12;;;;;;;7.93;3.80;;;;;;;34.86;37.18;99126.59;5074667;28;20242;-88
2023/07/12 07:05:40;;;;;;;9.73;3.63;;;;;;;34.79;36.32;99128.63;5074497;28;20187;-87
2023/07/12 07:08:06;;;;;;;5.32;3.67;;;;;;;34.78;37.40;99130.50;5074656;28;20634;-87
2023/07/12 07:10:32;;;;;;;6.50;3.60;;;;;;;35.04;38.46;99126.47;5074535;28;20184;-88
2023/07/12 07:12:57;;;;;;;9.90;3.83;;;;;;;35.34;35.55;99134.53;5074308;28;20238;-88
2023/07/12 07:15:23;;;;;;;5.32;3.35;;;;;;;35.56;35.41;99128.22;5074361;28;20177;-88
2023/07/12 07:17:48;;;;;;;6.75;3.65;;;;;;;35.55;34.18;99134.75;5074250;28;20646;-88
2023/07/12 07:20:14;;;;;;;6.03;3.40;;;;;;;35.86;35.27;99132.63;5074464;28;20232;-88
2023/07/12 07:22:39;;;;;;;5.90;2.90;;;;;;;36.10;34.87;99134.22;5074911;28;20170;-88
2023/07/12 07:25:05;;;;;;;9.32;4.05;;;;;;;36.28;33.22;99134.81;5073480;28;20200;-87
2023/07/12 07:27:31;;;;;;;6.60;3.47;;;;;;;36.17;33.08;99130.25;5074191;28;20264;-88
2023/07/12 07:29:56;;;;;;;5.68;3.50;;;;;;;36.38;33.67;99126.81;5074221;28;20227;-88
2023/07/12 07:32:22;;;;;;;6.18;3.15;;;;;;;36.72;34.03;99127.66;5073796;28;20170;-88
2023/07/12 07:34:47;;;;;;;12.52;3.22;;;;;;;36.93;33.57;99137.00;5074367;28;20556;-87
2023/07/12 07:37:13;;;;;;;8.45;3.75;;;;;;;37.06;32.65;99135.84;5073063;28;20243;-87
2023/07/12 07:39:38;;;;;;;7.90;3.67;;;;;;;37.28;33.54;99139.44;5074006;28;20561;-87
2023/07/12 07:42:04;;;;;;;5.22;3.25;;;;;;;37.47;32.26;99138.09;5072918;28;20200;-87
2023/07/12 07:44:29;;;;;;;6.22;3.58;;;;;;;37.62;31.42;99138.28;5074204;28;20627;-88
2023/07/12 07:46:55;;;;;;;5.72;2.85;;;;;;;37.84;32.44;99130.06;5065223;28;20177;-87
2023/07/12 07:49:20;;;;;;;5.82;3.03;;;;;;;38.04;32.05;99135.78;5053848;28;20178;-87
2023/07/12 07:51:46;;;;;;;10.50;3.03;;;;;;;38.20;31.21;99123.06;5053788;28;20173;-88
2023/07/12 07:54:12;;;;;;;6.20;3.47;;;;;;;38.12;29.96;99127.09;5053780;28;20588;-87
2023/07/12 07:56:39;;;;;;;5.38;3.17;;;;;;;38.12;32.21;99125.19;5071531;28;20583;-87
2023/07/12 07:59:06;;;;;;;6.90;3.38;;;;;;;38.17;31.36;99129.03;5073690;28;20177;-87
2023/07/12 08:01:31;;;;;;;8.43;3.42;;;;;;;38.33;32.75;99128.97;5073766;28;20253;-87
2023/07/12 08:03:57;;;;;;;5.85;3.13;;;;;;;38.15;31.34;99126.56;5073574;28;20588;-88
2023/07/12 08:06:23;;;;;;;4.88;3.17;;;;;;;38.43;31.04;99133.69;5073796;28;20260;-87
2023/07/12 08:08:49;;;;;;;6.22;3.47;;;;;;;38.66;31.14;99130.59;5072375;28;20221;-88
2023/07/12 08:11:14;;;;;;;6.65;3.40;;;;;;;38.49;29.99;99124.44;5072856;28;20177;-88
2023/07/12 08:13:40;;;;;;;8.93;3.53;;;;;;;38.64;30.17;99128.13;5072608;28;20173;-88
2023/07/12 08:16:05;;;;;;;6.80;3.92;;;;;;;38.90;30.53;99128.34;5073680;28;20267;-88
2023/07/12 08:18:31;;;;;;;6.18;3.25;;;;;;;39.02;30.48;99128.97;5073389;28;20177;-88
2023/07/12 08:20:57;;;;;;;5.35;3.20;;;;;;;38.99;31.49;99122.13;5073127;28;20215;-89
2023/07/12 08:23:23;;;;;;;6.10;3.03;;;;;;;39.03;29.56;99128.69;5072742;28;20181;-88
2023/07/12 08:25:52;;;;;;;6.57;3.50;;;;;;;38.87;30.65;99129.69;5073349;28;20184;-88
2023/07/12 08:28:17;;;;;;;7.28;3.10;;;;;;;38.84;30.60;99124.72;5073547;28;20173;-87
2023/07/12 08:30:43;;;;;;;7.65;3.15;;;;;;;38.95;30.63;99122.88;5072358;28;20183;-87
2023/07/12 08:33:09;;;;;;;8.65;3.47;;;;;;;39.08;29.76;99125.16;5072214;28;20618;-88
2023/07/12 08:35:34;;;;;;;6.22;2.97;;;;;;;39.18;29.42;99119.72;5072256;28;20231;-87
2023/07/12 08:38:00;;;;;;;7.95;3.45;;;;;;;39.28;31.18;99114.34;5073731;28;20539;-88
2023/07/12 08:40:27;;;;;;;7.97;3.97;;;;;;;39.27;30.81;99119.00;5073055;28;20192;-88
2023/07/12 08:42:52;;;;;;;8.00;3.85;;;;;;;39.01;28.03;99122.66;5073041;28;20184;-88
2023/07/12 08:45:26;;;;;;;5.00;3.08;;;;;;;39.17;30.46;99112.59;5072147;28;20187;-88
2023/07/12 08:47:58;;;;;;;7.60;3.50;;;;;;;39.34;29.76;99107.78;5072887;28;20169;-88
2023/07/12 08:50:39;;;;;;;8.68;3.63;;;;;;;39.59;30.99;99104.31;5065515;28;20631;-88
2023/07/12 08:53:23;;;;;;;6.07;3.67;;;;;;;39.66;30.16;99099.44;5055484;28;20237;-88
2023/07/12 08:55:50;;;;;;;7.75;3.00;;;;;;;39.64;29.40;99101.63;5069638;28;20174;-88
2023/07/12 08:58:25;;;;;;;5.65;3.33;;;;;;;39.59;30.46;99107.06;5057216;28;20189;-87
2023/07/12 09:01:07;;;;;;;6.28;3.30;;;;;;;39.70;29.51;99106.84;5067731;28;20209;-88
2023/07/12 09:03:36;;;;;;;6.97;3.92;;;;;;;39.92;30.62;99107.47;5066263;28;20586;-88
2023/07/12 09:06:12;;;;;;;6.20;3.47;;;;;;;40.02;29.34;99100.34;5053133;28;20185;-88
2023/07/12 09:08:41;;;;;;;5.60;3.28;;;;;;;40.06;30.52;99094.06;5052694;28;20212;-88
2023/07/12 09:11:16;;;;;;;5.22;3.47;;;;;;;39.98;30.47;99099.22;5051805;28;20197;-87
2023/07/12 09:13:42;;;;;;;6.47;3.15;;;;;;;39.97;27.61;99100.31;5052157;28;20580;-88
2023/07/12 09:16:33;;;;;;;5.45;3.35;;;;;;;39.91;29.17;99096.75;5051781;28;20190;-88
2023/07/12 09:19:11;;;;;;;6.07;3.38;;;;;;;39.86;30.76;99105.00;5053078;28;20192;-88
2023/07/12 09:21:37;;;;;;;6.97;3.35;;;;;;;39.94;28.75;99104.44;5058517;28;20224;-88
2023/07/12 09:24:11;;;;;;;4.95;3.00;;;;;;;40.01;28.68;99102.25;5071789;28;20249;-88
2023/07/12 09:26:36;;;;;;;7.32;3.05;;;;;;;40.22;28.59;99114.13;5072662;28;20579;-88
2023/07/12 09:29:18;;;;;;;9.45;3.22;;;;;;;40.30;29.80;99111.66;5072028;28;20177;-88
2023/07/12 09:31:45;;;;;;;5.20;3.10;;;;;;;40.31;28.85;99107.81;5071708;28;20234;-88
2023/07/12 09:34:36;;;;;;;5.30;3.17;;;;;;;40.30;27.83;99105.34;5073308;28;20177;-86
2023/07/12 09:37:03;;;;;;;6.18;3.53;;;;;;;40.42;29.42;99109.47;5073083;28;20189;-89
2023/07/12 09:39:29;;;;;;;4.22;2.80;;;;;;;40.56;29.48;99106.19;5075668;28;20192;-88
2023/07/12 09:42:01;;;;;;;7.78;3.40;;;;;;;40.67;29.39;99113.34;5075533;28;20205;-88
2023/07/12 09:44:27;;;;;;;5.03;3.10;;;;;;;40.65;28.50;99107.31;5076197;28;20251;-87
2023/07/12 09:47:26;;;;;;;6.95;3.22;;;;;;;40.48;28.39;99102.09;5076201;28;20227;-88
2023/07/12 09:50:00;;;;;;;5.35;3.15;;;;;;;40.57;28.47;99096.84;5076418;28;20654;-88
2023/07/12 09:53:03;;;;;;;9.82;3.80;;;;;;;40.43;27.27;99100.13;5076306;28;20234;-88
2023/07/12 09:55:35;;;;;;;5.13;3.40;;;;;;;40.53;29.26;99102.06;5075068;28;20519;-87
2023/07/12 09:58:05;;;;;;;7.43;3.60;;;;;;;40.72;29.34;99092.16;5076322;28;20242;-87
2023/07/12 10:00:54;;;;;;;5.60;2.55;;;;;;;40.79;27.10;99091.88;5074970;28;20749;-87
2023/07/12 10:03:33;;;;;;;5.63;3.33;;;;;;;40.70;26.20;99090.81;5071706;28;20342;-87
2023/07/12 10:06:05;;;;;;;5.90;3.03;;;;;;;40.86;29.45;99089.66;5059849;28;20241;-88
2023/07/12 10:08:59;;;;;;;8.02;3.25;;;;;;;40.90;28.28;99088.03;5066537;28;20580;-86
2023/07/12 10:11:39;;;;;;;5.22;3.20;;;;;;;40.86;27.12;99092.41;5075546;28;20180;-87
2023/07/12 10:14:09;;;;;;;5.25;3.05;;;;;;;40.92;26.83;99086.66;5074505;28;20215;-87
2023/07/12 10:16:46;;;;;;;5.45;3.30;;;;;;;40.65;26.09;99079.81;5076282;28;20176;-87
2023/07/12 10:19:26;;;;;;;7.90;3.30;;;;;;;40.73;28.20;99087.47;5076234;28;20172;-87
2023/07/12 10:21:55;;;;;;;7.38;3.20;;;;;;;40.72;28.51;99075.69;5062985;28;20213;-87
2023/07/12 10:24:27;;;;;;;4.40;2.85;;;;;;;40.41;27.00;99072.09;5055488;28;20185;-87
2023/07/12 10:26:52;;;;;;;6.45;3.30;;;;;;;40.44;28.34;99063.28;5056063;28;20157;-87
2023/07/12 10:29:29;;;;;;;7.38;3.55;;;;;;;40.16;25.36;99063.84;5055667;28;20177;-86
2023/07/12 10:31:58;;;;;;;6.40;3.22;;;;;;;40.53;28.67;99065.53;5059950;28;20567;-88
2023/07/12 10:34:33;;;;;;;4.90;2.65;;;;;;;40.64;26.20;99061.66;5075363;28;20197;-87
2023/07/12 10:37:09;;;;;;;5.50;3.00;;;;;;;40.49;26.27;99055.06;5075619;28;20237;-87
2023/07/12 10:39:35;;;;;;;4.25;2.35;;;;;;;40.25;24.53;99037.50;5074700;28;20156;-87
2023/07/12 10:42:10;;;;;;;5.60;2.95;;;;;;;40.36;25.18;99030.03;5075662;28;20196;-87
2023/07/12 10:44:43;;;;;;;4.03;2.25;;;;;;;40.55;25.81;99039.41;5075750;28;20221;-86
2023/07/12 10:47:15;;;;;;;5.80;2.85;;;;;;;40.81;24.75;99030.00;5074684;28;20165;-87
2023/07/12 10:49:52;;;;;;;6.10;2.85;;;;;;;40.93;24.55;99029.72;5075396;28;20153;-86
2023/07/12 10:52:30;;;;;;;6.63;2.80;;;;;;;41.01;24.83;99015.41;5075539;28;20157;-86
2023/07/12 10:55:17;;;;;;;5.47;2.78;;;;;;;41.11;25.76;99018.09;5075522;28;20177;-87
2023/07/12 10:57:50;;;;;;;5.45;2.80;;;;;;;41.04;25.06;99025.84;5075454;28;20161;-88
2023/07/12 11:00:15;;;;;;;6.25;3.05;;;;;;;40.84;25.71;99017.63;5073745;28;20519;-88
2023/07/12 11:02:50;;;;;;;6.28;3.10;;;;;;;41.21;24.05;99017.22;5074024;28;20203;-87
2023/07/12 11:05:46;;;;;;;4.63;2.30;;;;;;;41.43;25.38;99015.75;5073775;28;20177;-86
2023/07/12 11:08:30;;;;;;;4.97;3.00;;;;;;;41.51;24.66;99017.13;5074653;28;20227;-86
2023/07/12 11:10:59;;;;;;;5.68;2.60;;;;;;;41.58;24.84;99009.34;5073632;28;20204;-87
2023/07/12 11:13:32;;;;;;;4.88;3.17;;;;;;;41.81;24.67;99010.59;5073576;28;20189;-87
2023/07/12 11:16:26;;;;;;;6.53;3.00;;;;;;;41.92;24.60;99013.00;5073603;28;20173;-87
2023/07/12 11:18:57;;;;;;;4.97;2.72;;;;;;;41.82;24.75;99015.84;5074378;28;20238;-87
2023/07/12 11:21:40;;;;;;;6.03;3.40;;;;;;;41.82;23.88;99001.25;5073588;28;20205;-87
2023/07/12 11:24:27;;;;;;;5.43;2.95;;;;;;;41.99;24.06;99012.66;5073436;28;20180;-87
2023/07/12 11:26:59;;;;;;;5.93;3.08;;;;;;;41.95;25.98;99009.69;5074154;28;20531;-87
2023/07/12 11:29:24;;;;;;;5.20;3.20;;;;;;;42.19;22.80;99007.03;5073321;28;20169;-88
2023/07/12 11:32:23;;;;;;;6.82;2.95;;;;;;;42.15;23.92;99000.44;5073239;28;20188;-86
2023/07/12 11:34:59;;;;;;;9.55;4.05;;;;;;;42.42;22.70;98997.97;5074429;28;20157;-87
2023/07/12 11:37:37;;;;;;;4.95;2.70;;;;;;;42.61;22.99;98998.88;5054117;28;20190;-87
2023/07/12 11:40:14;;;;;;;6.40;3.05;;;;;;;42.89;22.11;98993.63;5054384;28;20166;-87
2023/07/12 11:42:39;;;;;;;5.20;3.30;;;;;;;42.64;23.39;98995.56;5054625;28;20562;-87